Mount Pleasant, IA (52641)

12:57 PM CDT on July 29, 2016 (GMT -0500)
Becks Hybrids Facility | | Change Station

Elev 728 ft 40.97 °N, 91.53 °W | Updated 2 minutes ago

Overcast
Overcast
72.0 °F
Feels Like 71 °F
N
3.0
Wind Variable Wind from West
Gusts 4.0 mph

Today
High -- | Low -- °F
--% Chance of Precip.
Yesterday
High -- | Low -- °F
Precip. -- in
Pressure 29.98 in
Visibility 10.0 miles
Clouds Overcast 2100 ft
Heat Index 71 °F
Dew Point 68 °F
Humidity 86%
Rainfall 0.00 in
Snow Depth Not available.
5:59 AM 8:24 PM
Waning Crescent, 20% visible
METAR KMPZ 291735Z AUTO 26004KT 10SM OVC021 23/21 A2998 RMK AO2 T02250207
Pressure 29.98 in
Visibility 10.0 miles
Clouds Overcast 2100 ft
Heat Index 71 °F
Dew Point 68 °F
Humidity 86%
Rainfall 0.00 in
Snow Depth Not available.
5:59 AM 8:24 PM
Waning Crescent, 20% visible
METAR KMPZ 291735Z AUTO 26004KT 10SM OVC021 23/21 A2998 RMK AO2 T02250207

10-Day Weather Forecast

Almanac

Astronomy

Jul. 29, 2016 Rise Set
Actual Time
Civil Twilight
Nautical Twilight
Astronomical Twilight
Moon
Length of Visible Light
Length of Day
Tomorrow will be .
, % of the Moon is Illuminated

Today's Extremes

State Highs State Lows

Community

WunderPhotos

Upload Photos

1,928,382 photos uploaded!

WunderBlog® & News

Nearby

Air Quality

  Air Quality AQ Index Pollutant
Not available.

Snow Depth

Station Depth Elevation

Earthquake Activity

City Distance Mag. Time & Date
Minimum magnitude displayed is 2.5.

Coastal Water Temperatures

Place Temperature

Stations

Nearby Weather Stations

Station Location Temp. Windchill Dew Point Humidity Wind Precip. Elev Updated Type
                   

Watches & Warnings

There are currently no watches in effect.